Terminal Aerodrome Forecast
Issued by NWS

Home | Current Version | Previous Version | Text Only | Print | Product List | Glossary On
Versions: 1 2 3 4 5 6 7 8 9 10 11 12 13 14 15 16 17 18
000
FTAK31 PAJN 201730
TAFAGY
TAF
PAGY 201730Z 2018/2118 VRB03KT P6SM OVC050
      TEMPO 2018/2020 20012KT
     FM202000 21012KT P6SM VCSH SCT030 BKN050 OVC070
     FM210000 21007KT P6SM -RA SCT025 BKN040 OVC050
     FM210600 VRB04KT P6SM -RA SCT025 OVC040
      AMD LTD TO CLD VIS AND WIND=

USA.gov is the U.S. government's official web portal to all federal, state and local government web resources and services.